Time;durP1;ratioP1;P1;durP2;ratioP2;P2;SDS_P1;SDS_P2;PMS_P1;PMS_P2;Temp;Humidity;BMP_temperature;BMP_pressure;BME280_temperature;BME280_humidity;BME280_pressure;Samples;Min_cycle;Max_cycle;Signal;HPM_P1;HPM_P2
2021/12/02 00:01:35;;;;;;;2.20;2.00;;;;;;;;;;4711162;30;32398;-69
2021/12/02 00:04:02;;;;;;;2.10;1.90;;;;;;;;;;4710899;30;34253;-69
2021/12/02 00:06:29;;;;;;;2.45;2.25;;;;;;;;;;4710365;30;32715;-69
2021/12/02 00:08:55;;;;;;;2.42;2.00;;;;;;;;;;4710348;30;32315;-69
2021/12/02 00:11:22;;;;;;;1.98;1.88;;;;;;;;;;4711053;30;32294;-68
2021/12/02 00:16:34;;;;;;;2.72;2.47;;;;;;;;;;4692961;30;32639;-71
2021/12/02 00:21:52;;;;;;;2.25;2.03;;;;;;;;;;4693003;30;32430;-70
2021/12/02 00:24:22;;;;;;;2.63;1.20;;;;;;;;;;4693196;30;32534;-71
2021/12/02 00:26:51;;;;;;;1.20;1.00;;;;;;;;;;4692796;30;32508;-70
2021/12/02 00:29:20;;;;;;;3.22;1.40;;;;;;;;;;4692725;30;32507;-70
2021/12/02 00:31:49;;;;;;;1.55;1.10;;;;;;;;;;4693013;30;32503;-70
2021/12/02 00:34:17;;;;;;;2.22;2.10;;;;;;;;;;4693047;30;32416;-70
2021/12/02 00:36:44;;;;;;;2.38;2.17;;;;;;;;;;4692652;30;33401;-70
2021/12/02 00:39:12;;;;;;;1.33;1.15;;;;;;;;;;4692726;30;32430;-70
2021/12/02 00:41:39;;;;;;;2.38;1.95;;;;;;;;;;4692779;30;32459;-69
2021/12/02 00:44:07;;;;;;;1.30;1.08;;;;;;;;;;4698056;30;32519;-70
2021/12/02 00:46:35;;;;;;;2.28;1.25;;;;;;;;;;4710678;30;32323;-69
2021/12/02 00:49:04;;;;;;;2.75;1.80;;;;;;;;;;4710206;30;34231;-70
2021/12/02 00:51:34;;;;;;;2.72;2.00;;;;;;;;;;4710253;30;32221;-70
2021/12/02 00:54:04;;;;;;;2.13;1.10;;;;;;;;;;4710175;30;32549;-69
2021/12/02 00:56:30;;;;;;;1.70;1.60;;;;;;;;;;4710572;30;32599;-68
2021/12/02 00:58:58;;;;;;;2.05;1.30;;;;;;;;;;4705684;30;33353;-68
2021/12/02 01:01:27;;;;;;;2.13;1.83;;;;;;;;;;4695065;30;32414;-69
2021/12/02 01:03:57;;;;;;;1.75;1.60;;;;;;;;;;4692484;30;32784;-68
2021/12/02 01:06:25;;;;;;;2.70;2.47;;;;;;;;;;4694029;30;32495;-68
2021/12/02 01:08:54;;;;;;;2.53;2.03;;;;;;;;;;4695142;30;32372;-69
2021/12/02 01:11:21;;;;;;;2.80;2.25;;;;;;;;;;4695054;30;34000;-68
2021/12/02 01:13:47;;;;;;;;;;;;;;;;;;4695744;30;32399;-68
2021/12/02 01:16:15;;;;;;;1.73;1.20;;;;;;;;;;4711625;30;32535;-68
2021/12/02 01:18:42;;;;;;;1.77;1.67;;;;;;;;;;4713060;30;32199;-69
2021/12/02 01:21:14;;;;;;;2.22;2.03;;;;;;;;;;4712568;30;32855;-68
2021/12/02 01:23:41;;;;;;;2.38;1.92;;;;;;;;;;4712701;30;32347;-68
2021/12/02 01:26:10;;;;;;;5.32;2.33;;;;;;;;;;4712562;30;32330;-68
2021/12/02 01:28:37;;;;;;;2.22;1.30;;;;;;;;;;4712410;30;32443;-68
2021/12/02 01:31:04;;;;;;;;;;;;;;;;;;4710429;30;32264;-68
2021/12/02 01:33:31;;;;;;;1.98;1.20;;;;;;;;;;4712478;30;33779;-68
2021/12/02 01:36:00;;;;;;;2.40;1.30;;;;;;;;;;4712405;30;32846;-68
2021/12/02 01:38:30;;;;;;;2.83;2.03;;;;;;;;;;4712265;30;32487;-68
2021/12/02 01:40:58;;;;;;;2.47;1.27;;;;;;;;;;4712766;30;32328;-68
2021/12/02 01:43:47;;;;;;;2.42;2.05;;;;;;;;;;4712657;30;32831;-68
2021/12/02 01:46:17;;;;;;;2.42;1.20;;;;;;;;;;4711988;30;32468;-69
2021/12/02 01:48:49;;;;;;;1.80;1.23;;;;;;;;;;4712318;30;32535;-70
2021/12/02 01:51:19;;;;;;;2.42;1.30;;;;;;;;;;4712485;30;32600;-71
2021/12/02 01:53:51;;;;;;;2.25;2.05;;;;;;;;;;4711347;30;32495;-70
2021/12/02 01:56:19;;;;;;;2.22;2.03;;;;;;;;;;4712044;30;32845;-70
2021/12/02 01:58:49;;;;;;;2.38;1.20;;;;;;;;;;4712070;30;32314;-70
2021/12/02 02:01:20;;;;;;;2.20;1.40;;;;;;;;;;4708621;30;32419;-68
2021/12/02 02:03:49;;;;;;;2.50;1.95;;;;;;;;;;4712564;30;32461;-68
2021/12/02 02:06:25;;;;;;;2.40;2.20;;;;;;;;;;4709178;30;32770;-68
2021/12/02 02:08:55;;;;;;;3.50;2.60;;;;;;;;;;4694128;30;32669;-68
2021/12/02 02:11:25;;;;;;;3.28;2.58;;;;;;;;;;4701744;30;32382;-69
2021/12/02 02:13:52;;;;;;;2.58;2.13;;;;;;;;;;4712107;30;32343;-68
2021/12/02 02:16:19;;;;;;;3.03;1.60;;;;;;;;;;4709593;29;32485;-68
2021/12/02 02:18:46;;;;;;;2.60;2.00;;;;;;;;;;4694370;30;33193;-68
2021/12/02 02:21:17;;;;;;;2.45;2.25;;;;;;;;;;4693946;30;32605;-69
2021/12/02 02:23:50;;;;;;;1.92;1.42;;;;;;;;;;4694509;30;32328;-70
2021/12/02 02:26:23;;;;;;;4.13;2.65;;;;;;;;;;4701941;30;32264;-68
2021/12/02 02:28:50;;;;;;;3.65;1.45;;;;;;;;;;4711851;30;33083;-69
2021/12/02 02:31:17;;;;;;;2.72;2.42;;;;;;;;;;4709701;30;32357;-69
2021/12/02 02:33:48;;;;;;;2.88;2.25;;;;;;;;;;4711084;30;32287;-70
2021/12/02 02:36:18;;;;;;;2.70;2.50;;;;;;;;;;4706537;30;32554;-69
2021/12/02 02:38:54;;;;;;;2.53;2.33;;;;;;;;;;4702734;30;32676;-69
2021/12/02 02:41:25;;;;;;;2.58;1.65;;;;;;;;;;4730404;24;32310;-67
2021/12/02 02:43:59;;;;;;;2.22;1.35;;;;;;;;;;4674096;30;32828;-70
2021/12/02 02:46:28;;;;;;;1.90;1.30;;;;;;;;;;4687223;30;32324;-70
2021/12/02 02:48:56;;;;;;;2.67;2.28;;;;;;;;;;4676858;30;32577;-68
2021/12/02 02:51:26;;;;;;;4.00;2.67;;;;;;;;;;4682890;30;33953;-70
2021/12/02 02:53:55;;;;;;;1.42;1.30;;;;;;;;;;4685444;30;32567;-73
2021/12/02 02:56:26;;;;;;;2.80;2.60;;;;;;;;;;4676750;30;32424;-75
2021/12/02 03:04:25;;;;;;;1.80;1.45;;;;;;;;;;4677200;30;33850;-71
2021/12/02 03:07:04;;;;;;;3.08;2.30;;;;;;;;;;4676730;30;32482;-71
2021/12/02 03:12:08;;;;;;;1.92;1.30;;;;;;;;;;4625165;30;32876;-69
2021/12/02 03:17:08;;;;;;;3.72;3.13;;;;;;;;;;4676541;30;32834;-70
2021/12/02 03:19:37;;;;;;;3.35;1.83;;;;;;;;;;4676641;30;32633;-70
2021/12/02 03:22:05;;;;;;;2.88;2.58;;;;;;;;;;4675169;30;32509;-70
2021/12/02 03:24:31;;;;;;;3.05;1.80;;;;;;;;;;4674619;30;32220;-71
2021/12/02 03:26:58;;;;;;;2.70;1.90;;;;;;;;;;4675387;30;32543;-72
2021/12/02 03:29:25;;;;;;;3.72;3.35;;;;;;;;;;4673601;30;32743;-73
2021/12/02 03:31:52;;;;;;;3.00;2.55;;;;;;;;;;4675759;30;32334;-73
2021/12/02 03:34:18;;;;;;;4.22;1.88;;;;;;;;;;4675795;30;32364;-73
2021/12/02 03:36:51;;;;;;;3.47;1.67;;;;;;;;;;4686059;30;33348;-73
2021/12/02 03:39:19;;;;;;;2.70;1.55;;;;;;;;;;4710473;30;32631;-73
2021/12/02 03:41:46;;;;;;;3.22;1.80;;;;;;;;;;4696032;30;32430;-74
2021/12/02 03:44:13;;;;;;;4.47;3.17;;;;;;;;;;4693164;30;32359;-72
2021/12/02 03:46:41;;;;;;;4.03;2.92;;;;;;;;;;4692852;30;32382;-73
2021/12/02 03:49:08;;;;;;;3.58;2.83;;;;;;;;;;4691978;30;32485;-72
2021/12/02 03:51:35;;;;;;;3.78;3.25;;;;;;;;;;4693700;30;32991;-73
2021/12/02 03:54:01;;;;;;;3.53;2.90;;;;;;;;;;4693417;30;32433;-73
2021/12/02 03:56:29;;;;;;;5.15;3.63;;;;;;;;;;4693531;30;32292;-73
2021/12/02 03:58:56;;;;;;;3.25;1.98;;;;;;;;;;4693112;30;33065;-73
2021/12/02 04:01:23;;;;;;;4.95;3.08;;;;;;;;;;4693348;30;32482;-74
2021/12/02 04:03:50;;;;;;;6.00;2.35;;;;;;;;;;4693229;30;32490;-72
2021/12/02 04:06:17;;;;;;;4.95;3.15;;;;;;;;;;4692889;30;32493;-74
2021/12/02 04:09:45;;;;;;;2.70;1.77;;;;;;;;;;4692984;30;32343;-72
2021/12/02 04:11:47;;;;;;;3.05;1.95;;;;;;;;;;4695831;30;32548;-74
2021/12/02 04:16:54;;;;;;;3.30;2.92;;;;;;;;;;4692957;30;32473;-74
2021/12/02 04:19:22;;;;;;;4.75;3.17;;;;;;;;;;4693289;30;32362;-73
2021/12/02 04:21:50;;;;;;;2.88;2.65;;;;;;;;;;4693041;30;32743;-73
2021/12/02 04:24:16;;;;;;;;;;;;;;;;;;4693029;30;32447;-74
2021/12/02 04:26:45;;;;;;;3.90;3.47;;;;;;;;;;4692858;30;32294;-72
2021/12/02 04:29:13;;;;;;;3.35;2.03;;;;;;;;;;4692483;30;32375;-75
2021/12/02 04:31:42;;;;;;;3.10;2.60;;;;;;;;;;4692191;30;32493;-72
2021/12/02 04:34:09;;;;;;;3.15;2.13;;;;;;;;;;4692587;30;32416;-72
2021/12/02 04:36:35;;;;;;;3.45;3.15;;;;;;;;;;4691754;30;32618;-73
2021/12/02 04:39:02;;;;;;;6.00;3.65;;;;;;;;;;4691985;30;32608;-73
2021/12/02 04:41:29;;;;;;;3.35;2.08;;;;;;;;;;4693425;30;32774;-72
2021/12/02 04:43:57;;;;;;;4.97;2.40;;;;;;;;;;4694767;30;33136;-73
2021/12/02 04:46:24;;;;;;;4.40;3.42;;;;;;;;;;4695055;30;32105;-72
2021/12/02 04:48:51;;;;;;;3.38;1.80;;;;;;;;;;4694616;30;32484;-72
2021/12/02 04:51:18;;;;;;;3.63;2.13;;;;;;;;;;4694927;30;32387;-73
2021/12/02 04:53:45;;;;;;;2.90;1.92;;;;;;;;;;4694232;30;32641;-73
2021/12/02 04:56:11;;;;;;;4.88;2.80;;;;;;;;;;4694248;30;32303;-73
2021/12/02 04:58:38;;;;;;;3.30;2.05;;;;;;;;;;4694520;30;32388;-72
2021/12/02 05:01:06;;;;;;;4.28;2.30;;;;;;;;;;4694852;30;32320;-72
2021/12/02 05:03:33;;;;;;;4.07;2.35;;;;;;;;;;4695588;30;32493;-73
2021/12/02 05:05:59;;;;;;;2.83;1.70;;;;;;;;;;4695313;30;32674;-74
2021/12/02 05:08:26;;;;;;;4.13;3.25;;;;;;;;;;4694993;30;32773;-71
2021/12/02 05:10:52;;;;;;;3.25;2.83;;;;;;;;;;4695266;30;32399;-72
2021/12/02 05:13:19;;;;;;;3.67;3.00;;;;;;;;;;4692252;30;32388;-73
2021/12/02 05:15:46;;;;;;;3.83;2.20;;;;;;;;;;4694525;30;33587;-72
2021/12/02 05:18:14;;;;;;;3.60;2.22;;;;;;;;;;4694800;30;32496;-73
2021/12/02 05:20:40;;;;;;;4.18;2.92;;;;;;;;;;4695176;30;32268;-72
2021/12/02 05:23:07;;;;;;;2.60;1.92;;;;;;;;;;4673307;30;32627;-73
2021/12/02 05:25:34;;;;;;;4.22;3.20;;;;;;;;;;4694185;30;32620;-73
2021/12/02 05:28:00;;;;;;;4.38;3.42;;;;;;;;;;4689441;30;33201;-73
2021/12/02 05:30:27;;;;;;;3.85;2.50;;;;;;;;;;4685369;30;32532;-73
2021/12/02 05:32:54;;;;;;;4.05;3.17;;;;;;;;;;4686427;30;32517;-73
2021/12/02 05:35:22;;;;;;;3.97;2.33;;;;;;;;;;4684854;30;32651;-73
2021/12/02 05:37:48;;;;;;;3.80;2.22;;;;;;;;;;4684792;30;33520;-73
2021/12/02 05:40:15;;;;;;;3.70;3.40;;;;;;;;;;4688750;30;32590;-72
2021/12/02 05:42:41;;;;;;;4.50;3.50;;;;;;;;;;4693788;30;32436;-72
2021/12/02 05:45:09;;;;;;;3.30;2.40;;;;;;;;;;4694161;30;32272;-73
2021/12/02 05:47:36;;;;;;;4.38;3.45;;;;;;;;;;4694593;30;32389;-72
2021/12/02 05:50:04;;;;;;;3.63;2.42;;;;;;;;;;4693459;30;33539;-73
2021/12/02 05:52:32;;;;;;;3.13;2.55;;;;;;;;;;4692780;30;32384;-72
2021/12/02 05:55:01;;;;;;;4.63;3.78;;;;;;;;;;4691389;30;32459;-72
2021/12/02 05:57:28;;;;;;;3.38;2.30;;;;;;;;;;4694378;30;32276;-73
2021/12/02 05:59:55;;;;;;;4.10;2.33;;;;;;;;;;4693410;30;32583;-74
2021/12/02 06:02:22;;;;;;;3.47;3.08;;;;;;;;;;4693482;30;32370;-74
2021/12/02 06:04:51;;;;;;;4.50;3.88;;;;;;;;;;4692679;30;32343;-74
2021/12/02 06:07:18;;;;;;;3.40;2.47;;;;;;;;;;4692167;30;32348;-73
2021/12/02 06:09:47;;;;;;;4.07;3.58;;;;;;;;;;4677260;30;32387;-73
2021/12/02 06:12:14;;;;;;;4.32;3.70;;;;;;;;;;4680199;30;33532;-73
2021/12/02 06:14:40;;;;;;;4.40;2.20;;;;;;;;;;4691368;30;32486;-73
2021/12/02 06:17:07;;;;;;;2.92;2.40;;;;;;;;;;4690486;30;32528;-74
2021/12/02 06:19:34;;;;;;;3.00;2.42;;;;;;;;;;4693785;30;32322;-72
2021/12/02 06:22:00;;;;;;;5.05;3.53;;;;;;;;;;4688295;30;34559;-74
2021/12/02 06:24:32;;;;;;;6.80;3.88;;;;;;;;;;4682241;30;32550;-75
2021/12/02 06:27:00;;;;;;;4.88;2.67;;;;;;;;;;4689197;30;32539;-72
2021/12/02 06:29:27;;;;;;;4.93;2.53;;;;;;;;;;4683251;30;32630;-74
2021/12/02 06:31:54;;;;;;;5.10;3.67;;;;;;;;;;4685295;30;32565;-73
2021/12/02 06:34:20;;;;;;;3.75;3.10;;;;;;;;;;4683695;30;32511;-73
2021/12/02 06:36:47;;;;;;;4.18;3.78;;;;;;;;;;4681777;30;32586;-73
2021/12/02 06:39:13;;;;;;;3.85;2.55;;;;;;;;;;4685461;30;32523;-73
2021/12/02 06:41:40;;;;;;;5.32;2.92;;;;;;;;;;4683546;30;32455;-73
2021/12/02 06:44:13;;;;;;;5.20;3.75;;;;;;;;;;4684670;30;34226;-73
2021/12/02 06:46:39;;;;;;;6.60;3.80;;;;;;;;;;4686422;30;32472;-74
2021/12/02 06:52:11;;;;;;;2.83;2.28;;;;;;;;;;4299499;32;32677;-65
2021/12/02 06:54:38;;;;;;;4.82;3.05;;;;;;;;;;4935471;28;32630;-64
2021/12/02 06:57:07;;;;;;;3.38;3.13;;;;;;;;;;4937127;28;33279;-66
2021/12/02 06:59:35;;;;;;;3.50;3.30;;;;;;;;;;4937523;28;32844;-65
2021/12/02 07:02:01;;;;;;;4.32;3.45;;;;;;;;;;4934301;28;32427;-65
2021/12/02 07:04:28;;;;;;;4.03;3.83;;;;;;;;;;4927206;28;32088;-65
2021/12/02 07:06:55;;;;;;;4.57;4.13;;;;;;;;;;4927076;28;32506;-66
2021/12/02 07:09:23;;;;;;;4.00;3.80;;;;;;;;;;4932842;28;32845;-66
2021/12/02 07:11:49;;;;;;;5.32;5.03;;;;;;;;;;4935038;28;32583;-65
2021/12/02 07:14:17;;;;;;;4.57;4.28;;;;;;;;;;4935324;28;32624;-65
2021/12/02 07:16:44;;;;;;;4.85;4.22;;;;;;;;;;4935770;28;32583;-66
2021/12/02 07:19:11;;;;;;;4.90;4.60;;;;;;;;;;4935249;28;34068;-66
2021/12/02 07:21:40;;;;;;;4.78;4.53;;;;;;;;;;4935158;28;32544;-66
2021/12/02 07:24:09;;;;;;;6.25;4.93;;;;;;;;;;4934807;28;32569;-66
2021/12/02 07:26:41;;;;;;;5.07;4.68;;;;;;;;;;4935136;28;32414;-66
2021/12/02 07:29:09;;;;;;;5.10;4.80;;;;;;;;;;4935943;28;32402;-66
2021/12/02 07:31:38;;;;;;;5.57;5.28;;;;;;;;;;4934544;28;33393;-66
2021/12/02 07:34:05;;;;;;;5.32;4.82;;;;;;;;;;4928167;28;32696;-65
2021/12/02 07:36:33;;;;;;;6.18;5.72;;;;;;;;;;4933986;28;32507;-66
2021/12/02 07:39:02;;;;;;;5.75;5.35;;;;;;;;;;4934814;28;32606;-66
2021/12/02 07:41:29;;;;;;;5.75;5.35;;;;;;;;;;4935133;28;33385;-66
2021/12/02 07:43:57;;;;;;;5.57;5.10;;;;;;;;;;4934602;28;32388;-66
2021/12/02 07:46:24;;;;;;;5.95;5.55;;;;;;;;;;4935112;28;32380;-65
2021/12/02 10:05:49;;;;;;;27.15;16.70;;;;;;;;;;4029163;33;32590;-69
2021/12/02 10:08:21;;;;;;;27.73;16.33;;;;;;;;;;4790485;29;33113;-68
2021/12/02 10:10:56;;;;;;;28.50;16.60;;;;;;;;;;4862703;29;34151;-67
2021/12/02 10:13:29;;;;;;;35.42;15.40;;;;;;;;;;4852363;29;32339;-69
2021/12/02 10:16:13;;;;;;;29.40;14.80;;;;;;;;;;4558431;29;33070;-68
2021/12/02 10:18:54;;;;;;;21.98;14.32;;;;;;;;;;4854069;29;32556;-69
2021/12/02 10:21:32;;;;;;;20.65;13.43;;;;;;;;;;4852289;29;32224;-66
2021/12/02 10:24:05;;;;;;;18.52;12.88;;;;;;;;;;4851526;29;35246;-66
2021/12/02 10:26:37;;;;;;;19.23;12.38;;;;;;;;;;4848630;29;32508;-68
2021/12/02 10:29:16;;;;;;;14.20;11.05;;;;;;;;;;4850993;29;32397;-68
2021/12/02 10:31:47;;;;;;;15.73;11.25;;;;;;;;;;4849661;29;32300;-66
2021/12/02 10:34:16;;;;;;;9.98;9.18;;;;;;;;;;4851895;29;34024;-68
2021/12/02 10:36:46;;;;;;;13.10;10.45;;;;;;;;;;4851518;29;32422;-66
2021/12/02 10:39:19;;;;;;;11.93;9.75;;;;;;;;;;4851199;29;32422;-66
2021/12/02 10:41:47;;;;;;;10.80;9.85;;;;;;;;;;4850778;29;32434;-66
2021/12/02 10:44:23;;;;;;;9.90;9.00;;;;;;;;;;4851295;29;32489;-66
2021/12/02 10:47:03;;;;;;;11.20;8.60;;;;;;;;;;4850938;29;34181;-67
2021/12/02 10:49:32;;;;;;;9.68;8.77;;;;;;;;;;4850479;29;32237;-68
2021/12/02 10:52:04;;;;;;;9.80;9.02;;;;;;;;;;4850650;29;32413;-67
2021/12/02 10:54:34;;;;;;;9.32;8.63;;;;;;;;;;4842320;29;32434;-67
2021/12/02 10:57:09;;;;;;;9.35;8.57;;;;;;;;;;4850948;29;35191;-69
2021/12/02 10:59:41;;;;;;;9.70;8.80;;;;;;;;;;4851231;29;32463;-68
2021/12/02 11:02:15;;;;;;;;;;;;;;;;;;4851979;29;32487;-67
2021/12/02 11:04:44;;;;;;;8.80;7.97;;;;;;;;;;4849860;29;32423;-67
2021/12/02 11:07:21;;;;;;;8.85;8.20;;;;;;;;;;4850875;29;32421;-68
2021/12/02 11:09:51;;;;;;;9.10;8.43;;;;;;;;;;4851392;29;35509;-67
2021/12/02 11:12:21;;;;;;;9.00;8.38;;;;;;;;;;4850119;29;32530;-66
2021/12/02 11:15:10;;;;;;;8.20;7.65;;;;;;;;;;4849386;29;32330;-67
2021/12/02 11:17:47;;;;;;;8.48;7.88;;;;;;;;;;4838127;29;32587;-67
2021/12/02 11:20:20;;;;;;;8.63;7.93;;;;;;;;;;4837810;29;34303;-68
2021/12/02 11:22:53;;;;;;;9.13;8.30;;;;;;;;;;4838396;29;32665;-69
2021/12/02 11:25:20;;;;;;;9.10;8.35;;;;;;;;;;4837703;29;32429;-68
2021/12/02 11:27:48;;;;;;;10.68;8.23;;;;;;;;;;4837345;29;32508;-67
2021/12/02 11:30:19;;;;;;;10.40;8.63;;;;;;;;;;4837777;29;32426;-68
2021/12/02 11:32:52;;;;;;;11.30;8.35;;;;;;;;;;4837857;29;34233;-70
2021/12/02 11:35:27;;;;;;;10.20;8.90;;;;;;;;;;4723881;29;32469;-67
2021/12/02 11:38:00;;;;;;;9.98;8.15;;;;;;;;;;4838532;29;32439;-68
2021/12/02 11:40:29;;;;;;;13.32;8.95;;;;;;;;;;4839222;29;32677;-68
2021/12/02 11:42:56;;;;;;;8.65;7.72;;;;;;;;;;4838505;29;35494;-69
2021/12/02 11:45:26;;;;;;;8.90;8.10;;;;;;;;;;4838544;29;32584;-69
2021/12/02 11:47:54;;;;;;;9.32;8.13;;;;;;;;;;4837132;29;32483;-67
2021/12/02 11:50:24;;;;;;;8.70;7.95;;;;;;;;;;4838844;29;32560;-67
2021/12/02 11:52:51;;;;;;;8.95;8.15;;;;;;;;;;4838908;29;32323;-68
2021/12/02 11:55:24;;;;;;;8.45;7.78;;;;;;;;;;4833752;29;34994;-68
2021/12/02 11:57:51;;;;;;;8.80;8.10;;;;;;;;;;4837235;29;32611;-67
2021/12/02 12:00:21;;;;;;;8.88;8.27;;;;;;;;;;4837767;29;32327;-68
2021/12/02 12:02:53;;;;;;;9.43;8.73;;;;;;;;;;4837884;29;32490;-69
2021/12/02 12:05:24;;;;;;;8.70;8.10;;;;;;;;;;4830319;29;35536;-68
2021/12/02 12:07:51;;;;;;;8.80;8.10;;;;;;;;;;4837521;29;32466;-68
2021/12/02 12:10:27;;;;;;;8.30;7.70;;;;;;;;;;4837635;29;32402;-68
2021/12/02 12:13:16;;;;;;;8.80;7.90;;;;;;;;;;4838203;29;32419;-67
2021/12/02 12:15:45;;;;;;;7.97;7.47;;;;;;;;;;4837584;29;32448;-69
2021/12/02 12:18:21;;;;;;;8.80;8.10;;;;;;;;;;4836979;29;34125;-68
2021/12/02 12:20:59;;;;;;;8.40;7.80;;;;;;;;;;4837589;29;32464;-67
2021/12/02 12:23:35;;;;;;;9.30;8.50;;;;;;;;;;4837700;29;32471;-67
2021/12/02 12:26:20;;;;;;;8.60;7.90;;;;;;;;;;4837063;29;32590;-69
2021/12/02 12:29:27;;;;;;;8.65;7.95;;;;;;;;;;4836851;29;35324;-67
2021/12/02 12:35:44;;;;;;;8.98;8.35;;;;;;;;;;4837705;29;32588;-68
2021/12/02 12:38:03;;;;;;;7.43;6.88;;;;;;;;;;4837392;29;32684;-67
2021/12/02 12:40:41;;;;;;;7.85;7.35;;;;;;;;;;4837145;29;32477;-69
2021/12/02 12:43:30;;;;;;;8.18;7.57;;;;;;;;;;4837128;29;34742;-66
2021/12/02 12:46:21;;;;;;;8.07;7.45;;;;;;;;;;4838079;29;32370;-67
2021/12/02 12:48:49;;;;;;;7.97;7.35;;;;;;;;;;4834185;29;32489;-66
2021/12/02 12:51:25;;;;;;;7.90;7.18;;;;;;;;;;4837851;29;32378;-65
2021/12/02 12:53:54;;;;;;;8.07;7.57;;;;;;;;;;4836932;29;34227;-66
2021/12/02 12:56:33;;;;;;;7.47;6.97;;;;;;;;;;4837179;29;32322;-67
2021/12/02 12:59:10;;;;;;;7.00;6.50;;;;;;;;;;4837047;29;32508;-66
2021/12/02 13:01:39;;;;;;;7.05;6.65;;;;;;;;;;4836978;29;32524;-66
2021/12/02 13:04:11;;;;;;;7.65;6.75;;;;;;;;;;4836554;29;32409;-66
2021/12/02 13:07:10;;;;;;;7.28;6.78;;;;;;;;;;4832000;29;34574;-65
2021/12/02 13:09:47;;;;;;;6.78;6.25;;;;;;;;;;4834902;29;32428;-66
2021/12/02 13:12:19;;;;;;;5.60;5.30;;;;;;;;;;4836879;29;32806;-66
2021/12/02 13:14:50;;;;;;;7.53;5.85;;;;;;;;;;4833325;29;32601;-67
2021/12/02 13:17:46;;;;;;;6.03;5.63;;;;;;;;;;4836879;29;33955;-67
2021/12/02 13:20:33;;;;;;;5.55;5.05;;;;;;;;;;4834839;29;32451;-66
2021/12/02 13:23:28;;;;;;;6.10;5.60;;;;;;;;;;4836953;29;32349;-66
2021/12/02 13:25:59;;;;;;;5.18;4.78;;;;;;;;;;4836710;29;32439;-67
2021/12/02 13:28:31;;;;;;;12.60;4.87;;;;;;;;;;4837034;29;32457;-66
2021/12/02 13:31:03;;;;;;;5.25;4.95;;;;;;;;;;4836223;29;34776;-66
2021/12/02 13:33:37;;;;;;;4.80;4.50;;;;;;;;;;4836649;29;32459;-67
2021/12/02 13:36:05;;;;;;;4.40;4.10;;;;;;;;;;4837061;29;32462;-66
2021/12/02 13:38:32;;;;;;;4.30;4.00;;;;;;;;;;4836017;29;32449;-67
2021/12/02 13:41:16;;;;;;;4.50;4.20;;;;;;;;;;4836373;29;34406;-67
2021/12/02 13:44:00;;;;;;;4.50;4.18;;;;;;;;;;4836974;29;32319;-66
2021/12/02 13:46:41;;;;;;;3.55;3.35;;;;;;;;;;4836338;29;32488;-66
2021/12/02 13:49:13;;;;;;;3.50;3.30;;;;;;;;;;4836900;29;32554;-66
2021/12/02 13:54:36;;;;;;;3.67;3.22;;;;;;;;;;4836571;29;35657;-66
2021/12/02 13:57:37;;;;;;;3.53;3.33;;;;;;;;;;4835909;29;32430;-67
2021/12/02 14:00:17;;;;;;;3.65;2.88;;;;;;;;;;4836387;29;32389;-66
2021/12/02 14:02:47;;;;;;;3.00;2.80;;;;;;;;;;4836748;29;32437;-66
2021/12/02 14:05:17;;;;;;;2.70;2.50;;;;;;;;;;4835553;29;34512;-68
2021/12/02 14:07:46;;;;;;;2.88;2.58;;;;;;;;;;4835229;29;32612;-68
2021/12/02 14:10:15;;;;;;;2.20;2.10;;;;;;;;;;4834411;29;32539;-67
2021/12/02 14:12:44;;;;;;;2.63;2.42;;;;;;;;;;4839373;29;32606;-67
2021/12/02 14:15:14;;;;;;;2.53;2.30;;;;;;;;;;4832815;29;32397;-67
2021/12/02 14:17:53;;;;;;;2.45;2.35;;;;;;;;;;4832809;29;36226;-67
2021/12/02 14:20:23;;;;;;;2.88;2.67;;;;;;;;;;4838027;29;32654;-68
2021/12/02 14:22:54;;;;;;;2.35;2.25;;;;;;;;;;4836956;29;32578;-70
2021/12/02 14:25:22;;;;;;;2.33;2.17;;;;;;;;;;4837310;29;32355;-67
2021/12/02 14:28:07;;;;;;;2.55;2.40;;;;;;;;;;4837516;29;36078;-67
2021/12/02 14:30:37;;;;;;;2.03;1.92;;;;;;;;;;4828846;29;32353;-66
2021/12/02 14:33:08;;;;;;;2.53;2.28;;;;;;;;;;4837688;29;32501;-70
2021/12/02 14:35:48;;;;;;;4.45;2.20;;;;;;;;;;4837985;29;32450;-67
2021/12/02 14:38:28;;;;;;;2.67;2.47;;;;;;;;;;4839650;29;32551;-66
2021/12/02 14:41:00;;;;;;;2.22;2.13;;;;;;;;;;4837725;29;32399;-67
2021/12/02 14:43:31;;;;;;;2.60;2.40;;;;;;;;;;4837947;29;32331;-66
2021/12/02 14:46:18;;;;;;;2.40;2.30;;;;;;;;;;4836663;29;32656;-70
2021/12/02 14:48:58;;;;;;;1.98;1.88;;;;;;;;;;4841497;29;32447;-74
2021/12/02 14:51:25;;;;;;;2.22;2.08;;;;;;;;;;4838783;29;35903;-72
2021/12/02 14:53:55;;;;;;;2.08;1.98;;;;;;;;;;4839190;29;32535;-72
2021/12/02 14:56:26;;;;;;;2.40;2.20;;;;;;;;;;4840927;29;32752;-69
2021/12/02 14:59:20;;;;;;;;;;;;;;;;;;4841573;29;32480;-69
2021/12/02 15:02:01;;;;;;;2.22;2.08;;;;;;;;;;4803788;29;32605;-70
2021/12/02 15:04:31;;;;;;;2.42;2.22;;;;;;;;;;4836251;29;32394;-70
2021/12/02 15:07:08;;;;;;;1.85;1.75;;;;;;;;;;4836604;29;32583;-72
2021/12/02 15:09:37;;;;;;;3.22;1.90;;;;;;;;;;4838907;29;32845;-69
2021/12/02 15:12:12;;;;;;;1.88;1.77;;;;;;;;;;4839669;29;32599;-76
2021/12/02 15:14:41;;;;;;;1.75;1.65;;;;;;;;;;4839385;29;34447;-76
2021/12/02 15:17:10;;;;;;;2.17;2.08;;;;;;;;;;4848830;29;32335;-71
2021/12/02 15:19:40;;;;;;;2.20;2.08;;;;;;;;;;4841827;29;32402;-69
2021/12/02 15:22:29;;;;;;;2.03;1.92;;;;;;;;;;4841369;29;32364;-71
2021/12/02 15:25:16;;;;;;;2.30;2.20;;;;;;;;;;4838675;29;32487;-69
2021/12/02 15:28:04;;;;;;;2.00;1.90;;;;;;;;;;4839383;29;32390;-67
2021/12/02 15:30:35;;;;;;;3.03;1.95;;;;;;;;;;4839438;29;32452;-70
2021/12/02 15:33:03;;;;;;;1.90;1.80;;;;;;;;;;4840924;29;32562;-68
2021/12/02 15:35:33;;;;;;;2.17;1.98;;;;;;;;;;4834839;29;32540;-69
2021/12/02 15:38:01;;;;;;;1.75;1.65;;;;;;;;;;4837183;29;35239;-70
2021/12/02 15:40:29;;;;;;;2.17;1.65;;;;;;;;;;4840738;29;32593;-70
2021/12/02 15:42:57;;;;;;;2.13;2.03;;;;;;;;;;4852117;29;32471;-71
2021/12/02 15:45:24;;;;;;;2.03;1.92;;;;;;;;;;4852951;29;32620;-69
2021/12/02 15:47:50;;;;;;;2.42;1.98;;;;;;;;;;4839634;29;32508;-69
2021/12/02 15:50:17;;;;;;;2.15;1.95;;;;;;;;;;4838954;29;32384;-69
2021/12/02 15:52:48;;;;;;;2.00;1.90;;;;;;;;;;4840053;29;32374;-68
2021/12/02 15:55:15;;;;;;;1.52;1.42;;;;;;;;;;4838706;29;32572;-69
2021/12/02 15:57:43;;;;;;;2.30;1.65;;;;;;;;;;4838959;29;32542;-69
2021/12/02 16:00:18;;;;;;;3.28;1.90;;;;;;;;;;4840934;29;34654;-67
2021/12/02 16:02:50;;;;;;;2.10;2.00;;;;;;;;;;4837908;29;32347;-69
2021/12/02 16:08:26;;;;;;;3.55;1.77;;;;;;;;;;4819419;29;32661;-67
2021/12/02 16:11:08;;;;;;;1.67;1.58;;;;;;;;;;4839292;29;32446;-68
2021/12/02 16:13:35;;;;;;;2.00;1.90;;;;;;;;;;4838175;29;32454;-68
2021/12/02 16:16:03;;;;;;;1.88;1.77;;;;;;;;;;4836884;29;32407;-68
2021/12/02 16:18:31;;;;;;;1.70;1.52;;;;;;;;;;4839745;29;32459;-70
2021/12/02 16:20:59;;;;;;;1.88;1.73;;;;;;;;;;4837831;29;33071;-67
2021/12/02 16:23:28;;;;;;;1.90;1.80;;;;;;;;;;4839841;29;34786;-71
2021/12/02 16:25:55;;;;;;;1.80;1.70;;;;;;;;;;4830386;29;32508;-69
2021/12/02 16:28:22;;;;;;;7.30;1.50;;;;;;;;;;4830522;29;32647;-71
2021/12/02 16:30:49;;;;;;;2.42;1.92;;;;;;;;;;4837165;29;32569;-67
2021/12/02 16:33:17;;;;;;;8.55;1.77;;;;;;;;;;4840188;29;32778;-64
2021/12/02 16:35:44;;;;;;;11.45;1.55;;;;;;;;;;4838943;29;32244;-65
2021/12/02 16:38:11;;;;;;;4.43;1.50;;;;;;;;;;4839336;29;32386;-69
2021/12/02 16:40:40;;;;;;;16.42;1.80;;;;;;;;;;4838065;29;32462;-68
2021/12/02 16:43:09;;;;;;;6.68;1.88;;;;;;;;;;4838605;29;32826;-68
2021/12/02 16:45:40;;;;;;;5.60;1.92;;;;;;;;;;4839834;29;34104;-68
2021/12/02 16:48:07;;;;;;;4.90;1.83;;;;;;;;;;4839899;29;32766;-67
2021/12/02 16:50:38;;;;;;;2.08;1.55;;;;;;;;;;4838352;29;32521;-69
2021/12/02 16:53:05;;;;;;;2.30;1.80;;;;;;;;;;4840088;29;32299;-71
2021/12/02 16:55:33;;;;;;;1.60;1.45;;;;;;;;;;4838797;29;34114;-67
2021/12/02 16:58:01;;;;;;;5.22;1.50;;;;;;;;;;4837567;29;32380;-70
2021/12/02 17:00:33;;;;;;;2.13;1.60;;;;;;;;;;4838065;29;32361;-71
2021/12/02 17:02:59;;;;;;;1.88;1.75;;;;;;;;;;4839027;29;32482;-68
2021/12/02 17:05:26;;;;;;;1.90;1.80;;;;;;;;;;4847574;29;32972;-69
2021/12/02 17:07:52;;;;;;;3.72;1.83;;;;;;;;;;4838906;29;34215;-70
2021/12/02 17:10:27;;;;;;;1.50;1.38;;;;;;;;;;4848274;29;32500;-70
2021/12/02 17:12:58;;;;;;;1.40;1.30;;;;;;;;;;4840355;29;32446;-69
2021/12/02 17:15:28;;;;;;;1.35;1.20;;;;;;;;;;4840984;29;32396;-72
2021/12/02 17:17:56;;;;;;;1.33;1.23;;;;;;;;;;4838021;29;34230;-72
2021/12/02 17:20:25;;;;;;;1.52;1.25;;;;;;;;;;4838973;29;32437;-68
2021/12/02 17:22:51;;;;;;;1.50;1.40;;;;;;;;;;4843684;29;33832;-68
2021/12/02 17:25:19;;;;;;;1.55;1.45;;;;;;;;;;4836733;29;32444;-70
2021/12/02 17:27:45;;;;;;;1.60;1.50;;;;;;;;;;4837865;29;32584;-70
2021/12/02 17:30:15;;;;;;;5.15;1.35;;;;;;;;;;4830873;29;34226;-70
2021/12/02 17:32:43;;;;;;;2.35;1.50;;;;;;;;;;4837083;29;32341;-71
2021/12/02 17:35:16;;;;;;;1.90;1.60;;;;;;;;;;4836955;29;32578;-70
2021/12/02 17:37:43;;;;;;;3.30;1.58;;;;;;;;;;4839596;29;32404;-68
2021/12/02 17:40:18;;;;;;;1.50;1.40;;;;;;;;;;4839370;29;34095;-69
2021/12/02 17:42:46;;;;;;;3.03;1.75;;;;;;;;;;4838296;29;32563;-67
2021/12/02 17:45:13;;;;;;;1.60;1.50;;;;;;;;;;4838317;29;32444;-69
2021/12/02 17:47:42;;;;;;;1.40;1.30;;;;;;;;;;4838740;29;32737;-68
2021/12/02 17:50:13;;;;;;;1.58;1.38;;;;;;;;;;4838090;29;32361;-66
2021/12/02 17:52:40;;;;;;;2.70;1.85;;;;;;;;;;4836543;29;34571;-67